sensor_id;sensor_type;location;lat;lon;timestamp;P1;durP1;ratioP1;P2;durP2;ratioP2
59587;SDS011;45412;54.472;18.464;2023-08-31T00:02:21;5.70;;;1.40;;
59587;SDS011;45412;54.472;18.464;2023-08-31T00:05:07;5.30;;;1.30;;
59587;SDS011;45412;54.472;18.464;2023-08-31T00:07:54;5.90;;;1.50;;
59587;SDS011;45412;54.472;18.464;2023-08-31T00:10:40;5.50;;;1.40;;
59587;SDS011;45412;54.472;18.464;2023-08-31T00:13:27;5.40;;;1.30;;
59587;SDS011;45412;54.472;18.464;2023-08-31T00:16:15;5.50;;;1.40;;
59587;SDS011;45412;54.472;18.464;2023-08-31T00:19:02;5.60;;;1.60;;
59587;SDS011;45412;54.472;18.464;2023-08-31T00:21:48;5.00;;;1.40;;
59587;SDS011;45412;54.472;18.464;2023-08-31T00:24:34;4.60;;;1.40;;
59587;SDS011;45412;54.472;18.464;2023-08-31T00:27:23;5.20;;;1.50;;
59587;SDS011;45412;54.472;18.464;2023-08-31T00:30:10;6.10;;;1.40;;
59587;SDS011;45412;54.472;18.464;2023-08-31T00:33:00;5.40;;;1.40;;
59587;SDS011;45412;54.472;18.464;2023-08-31T00:35:46;6.40;;;1.50;;
59587;SDS011;45412;54.472;18.464;2023-08-31T00:38:33;5.20;;;1.60;;
59587;SDS011;45412;54.472;18.464;2023-08-31T00:41:19;4.80;;;1.40;;
59587;SDS011;45412;54.472;18.464;2023-08-31T00:44:06;5.90;;;1.50;;
59587;SDS011;45412;54.472;18.464;2023-08-31T00:46:53;6.10;;;1.60;;
59587;SDS011;45412;54.472;18.464;2023-08-31T00:49:40;5.60;;;1.70;;
59587;SDS011;45412;54.472;18.464;2023-08-31T00:52:27;5.80;;;1.50;;
59587;SDS011;45412;54.472;18.464;2023-08-31T00:55:13;6.20;;;1.60;;
59587;SDS011;45412;54.472;18.464;2023-08-31T00:58:00;5.60;;;1.60;;
59587;SDS011;45412;54.472;18.464;2023-08-31T01:04:03;5.50;;;1.80;;
59587;SDS011;45412;54.472;18.464;2023-08-31T01:07:28;7.00;;;1.90;;
59587;SDS011;45412;54.472;18.464;2023-08-31T01:13:24;5.50;;;1.60;;
59587;SDS011;45412;54.472;18.464;2023-08-31T01:16:11;5.50;;;1.70;;
59587;SDS011;45412;54.472;18.464;2023-08-31T01:19:01;5.10;;;1.80;;
59587;SDS011;45412;54.472;18.464;2023-08-31T01:21:51;5.40;;;1.90;;
59587;SDS011;45412;54.472;18.464;2023-08-31T01:24:44;6.70;;;1.80;;
59587;SDS011;45412;54.472;18.464;2023-08-31T01:27:32;5.10;;;1.60;;
59587;SDS011;45412;54.472;18.464;2023-08-31T01:30:19;5.30;;;1.70;;
59587;SDS011;45412;54.472;18.464;2023-08-31T01:33:06;5.50;;;1.60;;
59587;SDS011;45412;54.472;18.464;2023-08-31T01:35:52;6.80;;;1.90;;
59587;SDS011;45412;54.472;18.464;2023-08-31T01:38:43;6.10;;;1.90;;
59587;SDS011;45412;54.472;18.464;2023-08-31T01:41:34;6.20;;;1.70;;
59587;SDS011;45412;54.472;18.464;2023-08-31T01:44:22;5.20;;;1.70;;
59587;SDS011;45412;54.472;18.464;2023-08-31T01:47:13;6.10;;;2.00;;
59587;SDS011;45412;54.472;18.464;2023-08-31T01:49:59;6.20;;;1.90;;
59587;SDS011;45412;54.472;18.464;2023-08-31T01:52:46;7.20;;;1.90;;
59587;SDS011;45412;54.472;18.464;2023-08-31T01:55:32;6.80;;;1.90;;
59587;SDS011;45412;54.472;18.464;2023-08-31T01:58:19;5.80;;;1.80;;
59587;SDS011;45412;54.472;18.464;2023-08-31T02:01:06;5.90;;;1.80;;
59587;SDS011;45412;54.472;18.464;2023-08-31T02:03:52;5.80;;;2.20;;
59587;SDS011;45412;54.472;18.464;2023-08-31T02:06:38;6.40;;;2.10;;
59587;SDS011;45412;54.472;18.464;2023-08-31T02:09:26;5.90;;;1.80;;
59587;SDS011;45412;54.472;18.464;2023-08-31T02:12:12;5.70;;;1.90;;
59587;SDS011;45412;54.472;18.464;2023-08-31T02:14:59;5.90;;;2.00;;
59587;SDS011;45412;54.472;18.464;2023-08-31T02:17:45;5.60;;;1.80;;
59587;SDS011;45412;54.472;18.464;2023-08-31T02:20:34;5.70;;;1.70;;
59587;SDS011;45412;54.472;18.464;2023-08-31T02:23:20;5.60;;;1.60;;
59587;SDS011;45412;54.472;18.464;2023-08-31T02:26:06;5.60;;;1.60;;
59587;SDS011;45412;54.472;18.464;2023-08-31T02:28:52;5.00;;;1.60;;
59587;SDS011;45412;54.472;18.464;2023-08-31T02:31:39;5.30;;;1.80;;
59587;SDS011;45412;54.472;18.464;2023-08-31T02:34:25;5.60;;;1.50;;
59587;SDS011;45412;54.472;18.464;2023-08-31T02:37:11;5.90;;;1.60;;
59587;SDS011;45412;54.472;18.464;2023-08-31T02:39:58;7.10;;;1.40;;
59587;SDS011;45412;54.472;18.464;2023-08-31T02:42:44;5.60;;;1.60;;
59587;SDS011;45412;54.472;18.464;2023-08-31T02:45:35;4.70;;;1.10;;
59587;SDS011;45412;54.472;18.464;2023-08-31T02:48:21;4.50;;;1.30;;
59587;SDS011;45412;54.472;18.464;2023-08-31T02:51:08;4.10;;;0.90;;
59587;SDS011;45412;54.472;18.464;2023-08-31T02:53:55;4.30;;;1.20;;
59587;SDS011;45412;54.472;18.464;2023-08-31T02:56:41;5.30;;;1.20;;
59587;SDS011;45412;54.472;18.464;2023-08-31T02:59:27;5.00;;;1.30;;
59587;SDS011;45412;54.472;18.464;2023-08-31T03:02:14;4.40;;;1.10;;
59587;SDS011;45412;54.472;18.464;2023-08-31T03:05:01;4.10;;;0.90;;
59587;SDS011;45412;54.472;18.464;2023-08-31T03:07:48;4.60;;;0.90;;
59587;SDS011;45412;54.472;18.464;2023-08-31T03:10:35;4.00;;;1.00;;
59587;SDS011;45412;54.472;18.464;2023-08-31T03:13:21;3.70;;;0.80;;
59587;SDS011;45412;54.472;18.464;2023-08-31T03:16:08;3.40;;;0.90;;
59587;SDS011;45412;54.472;18.464;2023-08-31T03:18:54;4.40;;;0.90;;
59587;SDS011;45412;54.472;18.464;2023-08-31T03:21:40;4.70;;;0.90;;
59587;SDS011;45412;54.472;18.464;2023-08-31T03:24:27;4.30;;;1.00;;
59587;SDS011;45412;54.472;18.464;2023-08-31T03:27:15;3.70;;;1.00;;
59587;SDS011;45412;54.472;18.464;2023-08-31T03:30:05;4.50;;;1.10;;
59587;SDS011;45412;54.472;18.464;2023-08-31T03:32:52;5.00;;;1.10;;
59587;SDS011;45412;54.472;18.464;2023-08-31T03:35:38;4.10;;;1.00;;
59587;SDS011;45412;54.472;18.464;2023-08-31T03:38:24;5.10;;;1.20;;
59587;SDS011;45412;54.472;18.464;2023-08-31T03:41:11;5.90;;;0.90;;
59587;SDS011;45412;54.472;18.464;2023-08-31T03:43:58;6.00;;;1.40;;
59587;SDS011;45412;54.472;18.464;2023-08-31T03:46:44;5.90;;;1.50;;
59587;SDS011;45412;54.472;18.464;2023-08-31T03:49:31;5.50;;;1.20;;
59587;SDS011;45412;54.472;18.464;2023-08-31T03:52:19;5.50;;;1.40;;
59587;SDS011;45412;54.472;18.464;2023-08-31T03:55:07;5.50;;;1.30;;
59587;SDS011;45412;54.472;18.464;2023-08-31T03:57:54;6.80;;;1.20;;
59587;SDS011;45412;54.472;18.464;2023-08-31T04:00:41;4.90;;;1.50;;
59587;SDS011;45412;54.472;18.464;2023-08-31T04:03:28;5.10;;;1.40;;
59587;SDS011;45412;54.472;18.464;2023-08-31T04:06:14;7.80;;;1.70;;
59587;SDS011;45412;54.472;18.464;2023-08-31T04:09:01;7.70;;;1.70;;
59587;SDS011;45412;54.472;18.464;2023-08-31T04:11:47;5.50;;;1.60;;
59587;SDS011;45412;54.472;18.464;2023-08-31T04:14:33;5.20;;;1.60;;
59587;SDS011;45412;54.472;18.464;2023-08-31T04:17:19;5.90;;;1.80;;
59587;SDS011;45412;54.472;18.464;2023-08-31T04:20:06;5.20;;;1.50;;
59587;SDS011;45412;54.472;18.464;2023-08-31T04:22:53;6.00;;;1.70;;
59587;SDS011;45412;54.472;18.464;2023-08-31T04:25:40;5.80;;;1.80;;
59587;SDS011;45412;54.472;18.464;2023-08-31T04:28:28;6.60;;;1.70;;
59587;SDS011;45412;54.472;18.464;2023-08-31T04:31:14;5.40;;;1.60;;
59587;SDS011;45412;54.472;18.464;2023-08-31T04:34:00;5.90;;;1.90;;
59587;SDS011;45412;54.472;18.464;2023-08-31T04:36:46;6.40;;;2.00;;
59587;SDS011;45412;54.472;18.464;2023-08-31T04:39:32;6.20;;;1.90;;
59587;SDS011;45412;54.472;18.464;2023-08-31T04:42:18;5.60;;;1.90;;
59587;SDS011;45412;54.472;18.464;2023-08-31T04:45:05;6.10;;;1.70;;
59587;SDS011;45412;54.472;18.464;2023-08-31T04:47:52;7.30;;;2.40;;
59587;SDS011;45412;54.472;18.464;2023-08-31T04:50:38;7.40;;;2.30;;
59587;SDS011;45412;54.472;18.464;2023-08-31T04:53:25;5.80;;;2.10;;
59587;SDS011;45412;54.472;18.464;2023-08-31T04:56:11;7.40;;;2.20;;
59587;SDS011;45412;54.472;18.464;2023-08-31T04:58:58;6.20;;;2.10;;
59587;SDS011;45412;54.472;18.464;2023-08-31T05:01:45;5.40;;;2.00;;
59587;SDS011;45412;54.472;18.464;2023-08-31T05:04:31;5.80;;;2.00;;
59587;SDS011;45412;54.472;18.464;2023-08-31T05:07:18;7.20;;;2.10;;
59587;SDS011;45412;54.472;18.464;2023-08-31T05:10:04;9.00;;;2.00;;
59587;SDS011;45412;54.472;18.464;2023-08-31T05:12:52;5.60;;;1.70;;
59587;SDS011;45412;54.472;18.464;2023-08-31T05:15:38;6.00;;;1.90;;
59587;SDS011;45412;54.472;18.464;2023-08-31T05:18:24;6.40;;;2.00;;
59587;SDS011;45412;54.472;18.464;2023-08-31T05:21:10;5.60;;;1.90;;
59587;SDS011;45412;54.472;18.464;2023-08-31T05:23:56;6.00;;;1.90;;
59587;SDS011;45412;54.472;18.464;2023-08-31T05:26:42;7.00;;;1.90;;
59587;SDS011;45412;54.472;18.464;2023-08-31T05:29:29;5.70;;;1.50;;
59587;SDS011;45412;54.472;18.464;2023-08-31T05:32:18;5.90;;;2.00;;
59587;SDS011;45412;54.472;18.464;2023-08-31T05:35:04;7.70;;;1.60;;
59587;SDS011;45412;54.472;18.464;2023-08-31T05:37:51;8.30;;;2.70;;
59587;SDS011;45412;54.472;18.464;2023-08-31T05:40:38;6.30;;;2.10;;
59587;SDS011;45412;54.472;18.464;2023-08-31T05:43:24;6.90;;;1.90;;
59587;SDS011;45412;54.472;18.464;2023-08-31T05:46:10;6.80;;;2.10;;
59587;SDS011;45412;54.472;18.464;2023-08-31T05:48:56;5.70;;;2.00;;
59587;SDS011;45412;54.472;18.464;2023-08-31T05:51:43;6.70;;;2.20;;
59587;SDS011;45412;54.472;18.464;2023-08-31T05:54:29;6.80;;;2.60;;
59587;SDS011;45412;54.472;18.464;2023-08-31T05:57:18;6.90;;;2.20;;
59587;SDS011;45412;54.472;18.464;2023-08-31T06:00:06;6.00;;;2.20;;
59587;SDS011;45412;54.472;18.464;2023-08-31T06:03:00;8.00;;;2.70;;
59587;SDS011;45412;54.472;18.464;2023-08-31T06:05:47;6.30;;;2.40;;
59587;SDS011;45412;54.472;18.464;2023-08-31T06:08:34;6.50;;;2.20;;
59587;SDS011;45412;54.472;18.464;2023-08-31T06:11:26;6.00;;;2.40;;
59587;SDS011;45412;54.472;18.464;2023-08-31T06:14:12;7.30;;;2.50;;
59587;SDS011;45412;54.472;18.464;2023-08-31T06:16:58;6.30;;;2.20;;
59587;SDS011;45412;54.472;18.464;2023-08-31T06:19:44;6.30;;;2.30;;
59587;SDS011;45412;54.472;18.464;2023-08-31T06:22:31;7.50;;;2.20;;
59587;SDS011;45412;54.472;18.464;2023-08-31T06:25:17;6.40;;;2.50;;
59587;SDS011;45412;54.472;18.464;2023-08-31T06:28:04;6.10;;;2.20;;
59587;SDS011;45412;54.472;18.464;2023-08-31T06:30:54;5.70;;;2.10;;
59587;SDS011;45412;54.472;18.464;2023-08-31T06:33:41;8.00;;;2.40;;
59587;SDS011;45412;54.472;18.464;2023-08-31T06:36:27;6.20;;;1.90;;
59587;SDS011;45412;54.472;18.464;2023-08-31T06:39:14;6.40;;;2.20;;
59587;SDS011;45412;54.472;18.464;2023-08-31T06:42:02;6.60;;;2.20;;
59587;SDS011;45412;54.472;18.464;2023-08-31T06:44:49;6.10;;;1.90;;
59587;SDS011;45412;54.472;18.464;2023-08-31T06:47:35;7.10;;;1.90;;
59587;SDS011;45412;54.472;18.464;2023-08-31T06:50:22;5.80;;;1.60;;
59587;SDS011;45412;54.472;18.464;2023-08-31T06:53:08;6.60;;;1.70;;
59587;SDS011;45412;54.472;18.464;2023-08-31T06:55:54;6.70;;;1.70;;
59587;SDS011;45412;54.472;18.464;2023-08-31T06:58:40;6.20;;;1.70;;
59587;SDS011;45412;54.472;18.464;2023-08-31T07:01:26;6.20;;;1.90;;
59587;SDS011;45412;54.472;18.464;2023-08-31T07:04:16;7.20;;;1.90;;
59587;SDS011;45412;54.472;18.464;2023-08-31T07:07:02;8.80;;;1.70;;
59587;SDS011;45412;54.472;18.464;2023-08-31T07:09:49;6.70;;;2.70;;
59587;SDS011;45412;54.472;18.464;2023-08-31T07:12:35;7.60;;;1.90;;
59587;SDS011;45412;54.472;18.464;2023-08-31T07:15:22;6.60;;;1.90;;
59587;SDS011;45412;54.472;18.464;2023-08-31T07:18:08;6.30;;;1.70;;
59587;SDS011;45412;54.472;18.464;2023-08-31T07:20:55;6.40;;;1.80;;
59587;SDS011;45412;54.472;18.464;2023-08-31T07:23:41;5.80;;;1.60;;
59587;SDS011;45412;54.472;18.464;2023-08-31T07:26:27;6.20;;;1.50;;
59587;SDS011;45412;54.472;18.464;2023-08-31T07:29:14;4.90;;;1.50;;
59587;SDS011;45412;54.472;18.464;2023-08-31T07:32:00;5.20;;;1.30;;
59587;SDS011;45412;54.472;18.464;2023-08-31T07:34:48;5.10;;;1.40;;
59587;SDS011;45412;54.472;18.464;2023-08-31T07:37:35;6.00;;;1.50;;
59587;SDS011;45412;54.472;18.464;2023-08-31T07:40:23;7.10;;;1.50;;
59587;SDS011;45412;54.472;18.464;2023-08-31T07:43:10;6.90;;;1.60;;
59587;SDS011;45412;54.472;18.464;2023-08-31T07:46:04;5.70;;;1.40;;
59587;SDS011;45412;54.472;18.464;2023-08-31T07:48:50;5.50;;;1.60;;
59587;SDS011;45412;54.472;18.464;2023-08-31T07:51:37;6.50;;;1.60;;
59587;SDS011;45412;54.472;18.464;2023-08-31T07:54:23;6.90;;;1.60;;
59587;SDS011;45412;54.472;18.464;2023-08-31T07:57:10;5.50;;;1.60;;
59587;SDS011;45412;54.472;18.464;2023-08-31T08:00:00;6.60;;;1.70;;
59587;SDS011;45412;54.472;18.464;2023-08-31T08:02:58;6.00;;;1.80;;
59587;SDS011;45412;54.472;18.464;2023-08-31T08:05:44;5.90;;;1.70;;
59587;SDS011;45412;54.472;18.464;2023-08-31T08:08:30;6.50;;;1.60;;
59587;SDS011;45412;54.472;18.464;2023-08-31T08:11:17;5.20;;;1.70;;
59587;SDS011;45412;54.472;18.464;2023-08-31T08:14:03;5.80;;;1.80;;
59587;SDS011;45412;54.472;18.464;2023-08-31T08:16:49;6.30;;;1.60;;
59587;SDS011;45412;54.472;18.464;2023-08-31T08:19:35;6.40;;;1.60;;
59587;SDS011;45412;54.472;18.464;2023-08-31T08:22:24;5.90;;;2.00;;
59587;SDS011;45412;54.472;18.464;2023-08-31T08:25:11;5.90;;;1.70;;
59587;SDS011;45412;54.472;18.464;2023-08-31T08:27:57;6.10;;;1.70;;
59587;SDS011;45412;54.472;18.464;2023-08-31T08:30:44;6.10;;;1.60;;
59587;SDS011;45412;54.472;18.464;2023-08-31T08:33:31;5.80;;;1.60;;
59587;SDS011;45412;54.472;18.464;2023-08-31T08:36:17;5.30;;;1.50;;
59587;SDS011;45412;54.472;18.464;2023-08-31T08:39:06;6.70;;;1.60;;
59587;SDS011;45412;54.472;18.464;2023-08-31T08:41:53;6.50;;;1.50;;
59587;SDS011;45412;54.472;18.464;2023-08-31T08:44:40;5.60;;;1.50;;
59587;SDS011;45412;54.472;18.464;2023-08-31T08:47:27;5.90;;;1.50;;
59587;SDS011;45412;54.472;18.464;2023-08-31T08:50:15;5.80;;;1.50;;
59587;SDS011;45412;54.472;18.464;2023-08-31T08:53:03;6.60;;;1.50;;
59587;SDS011;45412;54.472;18.464;2023-08-31T08:55:50;7.90;;;1.40;;
59587;SDS011;45412;54.472;18.464;2023-08-31T08:58:36;5.80;;;1.60;;
59587;SDS011;45412;54.472;18.464;2023-08-31T09:01:24;6.60;;;1.90;;
59587;SDS011;45412;54.472;18.464;2023-08-31T09:04:11;5.50;;;1.30;;
59587;SDS011;45412;54.472;18.464;2023-08-31T09:06:58;5.90;;;1.60;;
59587;SDS011;45412;54.472;18.464;2023-08-31T09:09:49;5.90;;;1.60;;
59587;SDS011;45412;54.472;18.464;2023-08-31T09:12:39;5.60;;;1.60;;
59587;SDS011;45412;54.472;18.464;2023-08-31T09:15:25;5.70;;;1.60;;
59587;SDS011;45412;54.472;18.464;2023-08-31T09:18:31;6.10;;;1.70;;
59587;SDS011;45412;54.472;18.464;2023-08-31T09:21:18;5.50;;;1.40;;
59587;SDS011;45412;54.472;18.464;2023-08-31T09:24:06;6.10;;;1.60;;
59587;SDS011;45412;54.472;18.464;2023-08-31T09:26:58;5.80;;;1.70;;
59587;SDS011;45412;54.472;18.464;2023-08-31T09:29:45;5.10;;;1.30;;
59587;SDS011;45412;54.472;18.464;2023-08-31T09:32:35;5.90;;;1.50;;
59587;SDS011;45412;54.472;18.464;2023-08-31T09:35:22;6.10;;;1.50;;
59587;SDS011;45412;54.472;18.464;2023-08-31T09:38:10;5.20;;;1.50;;
59587;SDS011;45412;54.472;18.464;2023-08-31T09:41:06;7.10;;;1.60;;
59587;SDS011;45412;54.472;18.464;2023-08-31T09:43:52;5.60;;;1.50;;
59587;SDS011;45412;54.472;18.464;2023-08-31T09:46:39;5.00;;;1.30;;
59587;SDS011;45412;54.472;18.464;2023-08-31T09:49:26;7.30;;;1.50;;
59587;SDS011;45412;54.472;18.464;2023-08-31T09:52:13;4.90;;;1.30;;
59587;SDS011;45412;54.472;18.464;2023-08-31T09:55:01;5.80;;;1.40;;
59587;SDS011;45412;54.472;18.464;2023-08-31T09:57:49;6.80;;;1.70;;
59587;SDS011;45412;54.472;18.464;2023-08-31T10:00:58;6.70;;;1.40;;
59587;SDS011;45412;54.472;18.464;2023-08-31T10:03:46;6.10;;;1.60;;
59587;SDS011;45412;54.472;18.464;2023-08-31T10:06:33;6.40;;;1.40;;
59587;SDS011;45412;54.472;18.464;2023-08-31T10:09:19;5.50;;;1.70;;
59587;SDS011;45412;54.472;18.464;2023-08-31T10:12:06;5.30;;;1.40;;
59587;SDS011;45412;54.472;18.464;2023-08-31T10:14:54;5.30;;;1.40;;
59587;SDS011;45412;54.472;18.464;2023-08-31T10:17:42;5.80;;;1.80;;
59587;SDS011;45412;54.472;18.464;2023-08-31T10:20:29;7.60;;;1.80;;
59587;SDS011;45412;54.472;18.464;2023-08-31T10:23:20;6.00;;;1.40;;
59587;SDS011;45412;54.472;18.464;2023-08-31T10:26:07;5.10;;;1.40;;
59587;SDS011;45412;54.472;18.464;2023-08-31T10:28:53;5.60;;;1.40;;
59587;SDS011;45412;54.472;18.464;2023-08-31T10:31:40;5.20;;;1.30;;
59587;SDS011;45412;54.472;18.464;2023-08-31T10:34:34;5.80;;;1.20;;
59587;SDS011;45412;54.472;18.464;2023-08-31T10:37:24;5.30;;;1.40;;
59587;SDS011;45412;54.472;18.464;2023-08-31T10:40:13;6.00;;;1.60;;
59587;SDS011;45412;54.472;18.464;2023-08-31T10:43:16;5.30;;;1.40;;
59587;SDS011;45412;54.472;18.464;2023-08-31T10:46:05;5.20;;;1.60;;
59587;SDS011;45412;54.472;18.464;2023-08-31T10:49:14;6.50;;;1.50;;
59587;SDS011;45412;54.472;18.464;2023-08-31T10:52:16;5.30;;;1.20;;
59587;SDS011;45412;54.472;18.464;2023-08-31T10:55:24;5.90;;;1.70;;
59587;SDS011;45412;54.472;18.464;2023-08-31T10:58:12;5.00;;;1.20;;
59587;SDS011;45412;54.472;18.464;2023-08-31T11:00:58;4.90;;;1.20;;
59587;SDS011;45412;54.472;18.464;2023-08-31T11:03:57;7.00;;;1.30;;
59587;SDS011;45412;54.472;18.464;2023-08-31T11:06:44;5.70;;;1.50;;
59587;SDS011;45412;54.472;18.464;2023-08-31T11:09:31;5.40;;;1.30;;
59587;SDS011;45412;54.472;18.464;2023-08-31T11:12:17;6.40;;;1.30;;
59587;SDS011;45412;54.472;18.464;2023-08-31T11:15:10;6.40;;;1.50;;
59587;SDS011;45412;54.472;18.464;2023-08-31T11:17:58;6.20;;;1.40;;
59587;SDS011;45412;54.472;18.464;2023-08-31T11:20:44;5.70;;;1.60;;
59587;SDS011;45412;54.472;18.464;2023-08-31T11:23:33;6.40;;;1.50;;
59587;SDS011;45412;54.472;18.464;2023-08-31T11:26:21;5.10;;;1.30;;
59587;SDS011;45412;54.472;18.464;2023-08-31T11:29:08;6.80;;;1.80;;
59587;SDS011;45412;54.472;18.464;2023-08-31T11:31:56;5.10;;;1.40;;
59587;SDS011;45412;54.472;18.464;2023-08-31T11:34:44;5.60;;;1.70;;
59587;SDS011;45412;54.472;18.464;2023-08-31T11:37:31;7.20;;;2.40;;
59587;SDS011;45412;54.472;18.464;2023-08-31T11:40:17;6.70;;;1.70;;
59587;SDS011;45412;54.472;18.464;2023-08-31T11:43:05;5.60;;;1.70;;
59587;SDS011;45412;54.472;18.464;2023-08-31T11:45:52;7.00;;;1.40;;
59587;SDS011;45412;54.472;18.464;2023-08-31T11:48:39;6.10;;;1.50;;
59587;SDS011;45412;54.472;18.464;2023-08-31T11:51:26;6.60;;;1.60;;
59587;SDS011;45412;54.472;18.464;2023-08-31T11:54:16;5.60;;;1.50;;
59587;SDS011;45412;54.472;18.464;2023-08-31T11:57:03;5.70;;;1.60;;
59587;SDS011;45412;54.472;18.464;2023-08-31T11:59:53;6.10;;;1.70;;
59587;SDS011;45412;54.472;18.464;2023-08-31T12:02:39;7.20;;;1.50;;
59587;SDS011;45412;54.472;18.464;2023-08-31T12:05:28;7.80;;;2.80;;
59587;SDS011;45412;54.472;18.464;2023-08-31T12:08:15;7.20;;;1.90;;
59587;SDS011;45412;54.472;18.464;2023-08-31T12:11:02;5.80;;;1.70;;
59587;SDS011;45412;54.472;18.464;2023-08-31T12:13:50;5.70;;;1.80;;
59587;SDS011;45412;54.472;18.464;2023-08-31T12:16:36;5.90;;;1.70;;
59587;SDS011;45412;54.472;18.464;2023-08-31T12:19:22;6.30;;;1.80;;
59587;SDS011;45412;54.472;18.464;2023-08-31T12:22:14;6.60;;;1.90;;
59587;SDS011;45412;54.472;18.464;2023-08-31T12:25:00;5.60;;;1.50;;
59587;SDS011;45412;54.472;18.464;2023-08-31T12:27:47;6.30;;;1.80;;
59587;SDS011;45412;54.472;18.464;2023-08-31T12:30:33;5.90;;;1.60;;
59587;SDS011;45412;54.472;18.464;2023-08-31T12:33:20;5.40;;;1.50;;
59587;SDS011;45412;54.472;18.464;2023-08-31T12:36:07;6.90;;;1.80;;
59587;SDS011;45412;54.472;18.464;2023-08-31T12:38:54;6.30;;;2.10;;
59587;SDS011;45412;54.472;18.464;2023-08-31T12:41:41;7.10;;;2.00;;
59587;SDS011;45412;54.472;18.464;2023-08-31T12:44:27;6.00;;;1.90;;
59587;SDS011;45412;54.472;18.464;2023-08-31T12:47:13;6.20;;;2.00;;
59587;SDS011;45412;54.472;18.464;2023-08-31T12:49:59;5.40;;;1.70;;
59587;SDS011;45412;54.472;18.464;2023-08-31T12:52:46;6.10;;;1.70;;
59587;SDS011;45412;54.472;18.464;2023-08-31T12:55:32;6.30;;;1.70;;
59587;SDS011;45412;54.472;18.464;2023-08-31T12:58:18;6.10;;;1.80;;
59587;SDS011;45412;54.472;18.464;2023-08-31T13:01:05;5.50;;;1.80;;
59587;SDS011;45412;54.472;18.464;2023-08-31T13:03:51;5.10;;;1.60;;
59587;SDS011;45412;54.472;18.464;2023-08-31T13:06:38;7.50;;;1.90;;
59587;SDS011;45412;54.472;18.464;2023-08-31T13:09:24;6.10;;;2.10;;
59587;SDS011;45412;54.472;18.464;2023-08-31T13:12:11;5.70;;;2.20;;
59587;SDS011;45412;54.472;18.464;2023-08-31T13:14:58;5.60;;;2.00;;
59587;SDS011;45412;54.472;18.464;2023-08-31T13:17:46;5.90;;;1.70;;
59587;SDS011;45412;54.472;18.464;2023-08-31T13:20:32;6.80;;;2.10;;
59587;SDS011;45412;54.472;18.464;2023-08-31T13:23:20;6.90;;;2.10;;
59587;SDS011;45412;54.472;18.464;2023-08-31T13:26:07;7.70;;;2.30;;
59587;SDS011;45412;54.472;18.464;2023-08-31T13:28:53;7.20;;;2.60;;
59587;SDS011;45412;54.472;18.464;2023-08-31T13:31:39;7.40;;;2.50;;
59587;SDS011;45412;54.472;18.464;2023-08-31T13:34:26;7.70;;;2.40;;
59587;SDS011;45412;54.472;18.464;2023-08-31T13:37:12;8.70;;;3.00;;
59587;SDS011;45412;54.472;18.464;2023-08-31T13:39:59;7.00;;;2.50;;
59587;SDS011;45412;54.472;18.464;2023-08-31T13:42:57;8.30;;;2.90;;
59587;SDS011;45412;54.472;18.464;2023-08-31T13:45:47;7.80;;;3.10;;
59587;SDS011;45412;54.472;18.464;2023-08-31T13:48:33;9.90;;;3.10;;
59587;SDS011;45412;54.472;18.464;2023-08-31T13:51:20;8.10;;;3.20;;
59587;SDS011;45412;54.472;18.464;2023-08-31T13:54:07;8.20;;;2.80;;
59587;SDS011;45412;54.472;18.464;2023-08-31T13:56:53;8.00;;;3.10;;
59587;SDS011;45412;54.472;18.464;2023-08-31T13:59:40;8.50;;;3.20;;
59587;SDS011;45412;54.472;18.464;2023-08-31T14:02:26;10.00;;;3.30;;
59587;SDS011;45412;54.472;18.464;2023-08-31T14:05:13;8.90;;;3.40;;
59587;SDS011;45412;54.472;18.464;2023-08-31T14:08:00;10.30;;;3.90;;
59587;SDS011;45412;54.472;18.464;2023-08-31T14:10:53;9.30;;;3.80;;
59587;SDS011;45412;54.472;18.464;2023-08-31T14:13:43;7.60;;;3.30;;
59587;SDS011;45412;54.472;18.464;2023-08-31T14:16:30;8.70;;;3.30;;
59587;SDS011;45412;54.472;18.464;2023-08-31T14:19:16;8.40;;;3.70;;
59587;SDS011;45412;54.472;18.464;2023-08-31T14:22:02;11.40;;;4.50;;
59587;SDS011;45412;54.472;18.464;2023-08-31T14:24:49;8.90;;;3.40;;
59587;SDS011;45412;54.472;18.464;2023-08-31T14:27:35;8.40;;;3.70;;
59587;SDS011;45412;54.472;18.464;2023-08-31T14:30:22;10.20;;;3.80;;
59587;SDS011;45412;54.472;18.464;2023-08-31T14:33:08;8.50;;;3.10;;
59587;SDS011;45412;54.472;18.464;2023-08-31T14:35:55;7.90;;;3.30;;
59587;SDS011;45412;54.472;18.464;2023-08-31T14:38:41;7.80;;;3.30;;
59587;SDS011;45412;54.472;18.464;2023-08-31T14:41:30;9.40;;;3.90;;
59587;SDS011;45412;54.472;18.464;2023-08-31T14:44:19;8.00;;;3.30;;
59587;SDS011;45412;54.472;18.464;2023-08-31T14:47:06;8.30;;;3.60;;
59587;SDS011;45412;54.472;18.464;2023-08-31T14:49:52;7.70;;;3.60;;
59587;SDS011;45412;54.472;18.464;2023-08-31T14:52:41;7.90;;;3.60;;
59587;SDS011;45412;54.472;18.464;2023-08-31T14:55:27;10.50;;;3.70;;
59587;SDS011;45412;54.472;18.464;2023-08-31T14:58:14;8.10;;;3.80;;
59587;SDS011;45412;54.472;18.464;2023-08-31T15:01:01;8.60;;;4.00;;
59587;SDS011;45412;54.472;18.464;2023-08-31T15:03:47;7.90;;;3.80;;
59587;SDS011;45412;54.472;18.464;2023-08-31T15:06:33;7.50;;;3.50;;
59587;SDS011;45412;54.472;18.464;2023-08-31T15:09:20;8.10;;;3.30;;
59587;SDS011;45412;54.472;18.464;2023-08-31T15:12:07;10.00;;;3.70;;
59587;SDS011;45412;54.472;18.464;2023-08-31T15:14:54;11.40;;;3.60;;
59587;SDS011;45412;54.472;18.464;2023-08-31T15:17:41;7.60;;;3.90;;
59587;SDS011;45412;54.472;18.464;2023-08-31T15:20:28;7.60;;;3.40;;
59587;SDS011;45412;54.472;18.464;2023-08-31T15:23:14;8.20;;;3.70;;
59587;SDS011;45412;54.472;18.464;2023-08-31T15:26:02;7.70;;;3.80;;
59587;SDS011;45412;54.472;18.464;2023-08-31T15:28:48;8.70;;;3.90;;
59587;SDS011;45412;54.472;18.464;2023-08-31T15:31:37;8.00;;;3.50;;
59587;SDS011;45412;54.472;18.464;2023-08-31T15:34:23;8.80;;;4.20;;
59587;SDS011;45412;54.472;18.464;2023-08-31T15:37:09;8.50;;;3.70;;
59587;SDS011;45412;54.472;18.464;2023-08-31T15:39:57;9.50;;;4.10;;
59587;SDS011;45412;54.472;18.464;2023-08-31T15:42:43;9.10;;;4.30;;
59587;SDS011;45412;54.472;18.464;2023-08-31T15:45:29;8.90;;;4.40;;
59587;SDS011;45412;54.472;18.464;2023-08-31T15:48:16;9.80;;;4.60;;
59587;SDS011;45412;54.472;18.464;2023-08-31T15:51:02;8.40;;;4.20;;
59587;SDS011;45412;54.472;18.464;2023-08-31T15:53:48;9.50;;;4.30;;
59587;SDS011;45412;54.472;18.464;2023-08-31T15:56:35;8.40;;;4.00;;
59587;SDS011;45412;54.472;18.464;2023-08-31T15:59:21;8.80;;;4.30;;
59587;SDS011;45412;54.472;18.464;2023-08-31T16:02:09;9.70;;;4.60;;
59587;SDS011;45412;54.472;18.464;2023-08-31T16:04:57;8.20;;;4.30;;
59587;SDS011;45412;54.472;18.464;2023-08-31T16:07:43;8.40;;;4.50;;
59587;SDS011;45412;54.472;18.464;2023-08-31T16:10:30;10.60;;;4.80;;
59587;SDS011;45412;54.472;18.464;2023-08-31T16:13:18;8.90;;;4.60;;
59587;SDS011;45412;54.472;18.464;2023-08-31T16:16:04;9.20;;;4.30;;
59587;SDS011;45412;54.472;18.464;2023-08-31T16:18:51;8.00;;;3.90;;
59587;SDS011;45412;54.472;18.464;2023-08-31T16:21:38;8.30;;;4.30;;
59587;SDS011;45412;54.472;18.464;2023-08-31T16:24:25;8.90;;;4.00;;
59587;SDS011;45412;54.472;18.464;2023-08-31T16:27:11;8.80;;;4.70;;
59587;SDS011;45412;54.472;18.464;2023-08-31T16:29:58;9.10;;;4.80;;
59587;SDS011;45412;54.472;18.464;2023-08-31T16:32:44;8.30;;;4.30;;
59587;SDS011;45412;54.472;18.464;2023-08-31T16:35:31;9.50;;;4.80;;
59587;SDS011;45412;54.472;18.464;2023-08-31T16:38:20;9.20;;;4.20;;
59587;SDS011;45412;54.472;18.464;2023-08-31T16:41:07;9.10;;;4.30;;